createdAt,value
2018-04-26T00:02:22.820Z,85.40
2018-04-26T00:04:51.047Z,87.80
2018-04-26T00:07:18.485Z,87.80
2018-04-26T00:09:45.921Z,88.00
2018-04-26T00:12:13.428Z,88.90
2018-04-26T00:14:40.859Z,88.90
2018-04-26T00:17:08.300Z,89.60
2018-04-26T00:19:35.750Z,90.00
2018-04-26T00:22:03.195Z,90.30
2018-04-26T00:24:30.641Z,90.80
2018-04-26T00:26:58.860Z,91.20
2018-04-26T00:29:26.309Z,91.10
2018-04-26T00:31:53.760Z,91.30
2018-04-26T00:34:21.219Z,91.10
2018-04-26T00:36:48.656Z,91.50
2018-04-26T00:39:16.114Z,91.80
2018-04-26T00:41:43.583Z,91.90
2018-04-26T00:44:11.016Z,92.00
2018-04-26T00:46:39.233Z,92.90
2018-04-26T00:49:06.696Z,92.90
2018-04-26T00:51:45.913Z,92.90
2018-04-26T00:54:13.365Z,92.50
2018-04-26T00:56:40.824Z,92.30
2018-04-26T00:59:08.273Z,92.30
2018-04-26T01:01:35.715Z,92.20
2018-04-26T01:04:03.191Z,92.10
2018-04-26T01:06:30.626Z,92.40
2018-04-26T01:08:58.066Z,92.50
2018-04-26T01:11:25.520Z,92.60
2018-04-26T01:13:52.991Z,92.60
2018-04-26T01:16:20.434Z,92.80
2018-04-26T01:18:47.881Z,93.20
2018-04-26T01:21:15.338Z,93.40
2018-04-26T01:23:42.784Z,93.60
2018-04-26T01:26:11.006Z,93.80
2018-04-26T01:28:38.460Z,93.80
2018-04-26T01:31:05.908Z,93.90
2018-04-26T01:33:33.345Z,94.00
2018-04-26T01:36:00.903Z,94.10
2018-04-26T01:38:28.357Z,94.30
2018-04-26T01:40:55.796Z,94.40
2018-04-26T01:43:23.251Z,94.40
2018-04-26T01:45:50.709Z,94.30
2018-04-26T01:48:18.160Z,94.30
2018-04-26T01:50:45.636Z,94.20
2018-04-26T01:53:13.097Z,94.00
2018-04-26T01:55:40.577Z,93.70
2018-04-26T01:58:08.012Z,93.50
2018-04-26T02:00:35.446Z,93.60
2018-04-26T02:03:03.019Z,93.40
2018-04-26T02:05:30.468Z,93.20
2018-04-26T02:07:57.913Z,93.50
2018-04-26T02:10:26.140Z,93.60
2018-04-26T02:12:53.588Z,93.60
2018-04-26T02:15:21.040Z,93.70
2018-04-26T02:17:48.483Z,93.90
2018-04-26T02:20:15.924Z,93.80
2018-04-26T02:22:43.375Z,93.50
2018-04-26T02:25:10.826Z,93.40
2018-04-26T02:27:39.035Z,93.60
2018-04-26T02:30:06.490Z,93.60
2018-04-26T02:32:33.945Z,93.70
2018-04-26T02:35:01.393Z,93.70
2018-04-26T02:37:28.865Z,93.30
2018-04-26T02:39:56.299Z,93.20
2018-04-26T02:42:23.742Z,93.30
2018-04-26T02:44:51.962Z,93.80
2018-04-26T02:47:19.412Z,93.80
2018-04-26T02:49:46.865Z,94.00
2018-04-26T02:52:14.318Z,94.50
2018-04-26T02:54:41.757Z,94.50
2018-04-26T02:57:09.965Z,94.10
2018-04-26T02:59:37.429Z,94.10
2018-04-26T03:02:04.854Z,94.30
2018-04-26T03:04:32.311Z,94.60
2018-04-26T03:07:00.535Z,93.40
2018-04-26T03:09:28.757Z,93.70
2018-04-26T03:11:56.963Z,93.80
2018-04-26T03:14:24.436Z,93.80
2018-04-26T03:16:51.876Z,93.90
2018-04-26T03:19:19.347Z,94.10
2018-04-26T03:21:46.777Z,94.40
2018-04-26T03:24:14.235Z,94.60
2018-04-26T03:26:41.665Z,94.50
2018-04-26T03:29:09.885Z,94.60
2018-04-26T03:31:37.327Z,94.50
2018-04-26T03:34:04.779Z,94.60
2018-04-26T03:36:32.218Z,94.70
2018-04-26T03:39:00.440Z,94.90
2018-04-26T03:41:27.904Z,94.90
2018-04-26T03:43:55.339Z,95.10
2018-04-26T03:46:22.797Z,95.00
2018-04-26T03:48:50.232Z,94.90
2018-04-26T03:51:18.459Z,94.60
2018-04-26T03:53:45.900Z,94.60
2018-04-26T03:56:13.353Z,94.70
2018-04-26T03:58:40.796Z,94.90
2018-04-26T04:01:20.955Z,95.00
2018-04-26T04:04:00.418Z,95.00
2018-04-26T04:06:27.853Z,95.00
2018-04-26T04:08:55.305Z,95.20
2018-04-26T04:11:22.759Z,95.60
2018-04-26T04:13:50.191Z,95.50
2018-04-26T04:16:17.661Z,95.40
2018-04-26T04:18:45.089Z,95.40
2018-04-26T04:21:12.534Z,95.40
2018-04-26T04:23:39.991Z,95.60
2018-04-26T04:26:07.440Z,95.40
2018-04-26T04:28:34.928Z,95.40
2018-04-26T04:31:02.347Z,95.40
2018-04-26T04:33:29.805Z,95.50
2018-04-26T04:35:57.247Z,95.60
2018-04-26T04:38:24.694Z,95.60
2018-04-26T04:40:52.136Z,95.70
2018-04-26T04:43:20.371Z,95.70
2018-04-26T04:45:47.840Z,95.70
2018-04-26T04:48:15.296Z,95.60
2018-04-26T04:50:42.750Z,95.40
2018-04-26T04:53:10.189Z,95.30
2018-04-26T04:55:37.649Z,95.30
2018-04-26T04:58:05.121Z,95.30
2018-04-26T05:00:32.580Z,95.70
2018-04-26T05:03:00.023Z,96.10
2018-04-26T05:05:27.471Z,96.40
2018-04-26T05:07:54.912Z,96.60
2018-04-26T05:10:22.406Z,96.10
2018-04-26T05:12:49.873Z,95.70
2018-04-26T05:15:17.313Z,95.50
2018-04-26T05:17:45.524Z,95.70
2018-04-26T05:20:13.736Z,95.80
2018-04-26T05:22:41.236Z,95.70
2018-04-26T05:25:08.651Z,95.50
2018-04-26T05:27:36.106Z,95.10
2018-04-26T05:30:03.643Z,94.80
2018-04-26T05:32:31.013Z,94.70
2018-04-26T05:34:58.466Z,94.70
2018-04-26T05:37:25.908Z,94.80
2018-04-26T05:39:53.367Z,94.50
2018-04-26T05:42:20.802Z,94.20
2018-04-26T05:44:48.265Z,94.10
2018-04-26T05:47:15.788Z,94.10
2018-04-26T05:49:43.927Z,93.90
2018-04-26T05:52:11.369Z,93.80
2018-04-26T05:54:38.804Z,94.10
2018-04-26T05:57:06.247Z,94.40
2018-04-26T05:59:34.473Z,94.30
2018-04-26T06:02:01.918Z,94.30
2018-04-26T06:04:29.386Z,93.80
2018-04-26T06:06:56.831Z,92.90
2018-04-26T06:09:24.278Z,92.50
2018-04-26T06:11:51.729Z,91.90
2018-04-26T06:14:19.179Z,91.30
2018-04-26T06:16:46.817Z,91.50
2018-04-26T06:19:14.200Z,91.20
2018-04-26T06:21:41.642Z,91.30
2018-04-26T06:24:09.103Z,91.00
2018-04-26T06:26:36.549Z,90.60
2018-04-26T06:29:03.998Z,90.20
2018-04-26T06:31:31.459Z,89.60
2018-04-26T06:33:58.904Z,90.10
2018-04-26T06:36:26.370Z,90.20
2018-04-26T06:38:53.829Z,88.90
2018-04-26T06:41:21.304Z,88.60
2018-04-26T06:43:48.742Z,85.40
2018-04-26T06:46:16.176Z,83.30
2018-04-26T06:48:44.390Z,81.60
2018-04-26T06:51:11.823Z,80.90
2018-04-26T06:53:40.024Z,78.40
2018-04-26T06:56:07.473Z,78.40
2018-04-26T06:58:34.942Z,78.30
2018-04-26T07:01:02.398Z,77.40
2018-04-26T07:03:29.867Z,77.20
2018-04-26T07:05:57.411Z,76.60
2018-04-26T07:08:24.869Z,77.60
2018-04-26T07:10:52.321Z,78.10
2018-04-26T07:13:19.784Z,78.30
2018-04-26T07:15:47.218Z,78.60
2018-04-26T07:18:14.673Z,78.00
2018-04-26T07:20:42.203Z,79.60
2018-04-26T07:23:09.647Z,80.80
2018-04-26T07:25:37.075Z,79.90
2018-04-26T07:28:05.295Z,79.40
2018-04-26T07:30:33.663Z,78.70
2018-04-26T07:33:01.107Z,79.10
2018-04-26T07:35:28.541Z,79.60
2018-04-26T07:37:55.991Z,79.60
2018-04-26T07:40:24.194Z,78.10
2018-04-26T07:42:51.638Z,78.20
2018-04-26T07:45:19.067Z,77.50
2018-04-26T07:47:46.497Z,77.40
2018-04-26T07:50:13.948Z,74.70
2018-04-26T07:52:41.383Z,74.10
2018-04-26T07:55:08.831Z,72.90
2018-04-26T07:57:36.274Z,72.40
2018-04-26T08:00:03.699Z,70.80
2018-04-26T08:02:31.906Z,69.80
2018-04-26T08:04:59.333Z,69.70
2018-04-26T08:07:27.530Z,67.90
2018-04-26T08:09:54.954Z,67.90
2018-04-26T08:12:22.393Z,68.20
2018-04-26T08:14:49.823Z,68.60
2018-04-26T08:17:17.271Z,69.10
2018-04-26T08:19:44.819Z,69.90
2018-04-26T08:22:12.909Z,66.60
2018-04-26T08:24:40.337Z,66.60
2018-04-26T08:27:08.532Z,68.30
2018-04-26T08:29:35.961Z,68.10
2018-04-26T08:32:04.166Z,67.80
2018-04-26T08:34:31.603Z,67.80
2018-04-26T08:36:59.839Z,66.40
2018-04-26T08:39:27.273Z,66.40
2018-04-26T08:41:54.702Z,66.40
2018-04-26T08:44:22.175Z,66.50
2018-04-26T08:46:49.583Z,65.60
2018-04-26T08:49:17.000Z,65.20
2018-04-26T08:51:44.434Z,64.30
2018-04-26T08:54:11.849Z,63.30
2018-04-26T08:56:39.289Z,63.90
2018-04-26T08:59:06.715Z,64.00
2018-04-26T09:01:34.168Z,64.50
2018-04-26T09:04:01.587Z,64.80
2018-04-26T09:06:29.023Z,63.40
2018-04-26T09:08:56.455Z,63.20
2018-04-26T09:11:23.878Z,63.50
2018-04-26T09:13:52.234Z,60.50
2018-04-26T09:16:19.663Z,60.40
2018-04-26T09:18:47.095Z,58.80
2018-04-26T09:21:15.234Z,58.70
2018-04-26T09:23:43.418Z,59.10
2018-04-26T09:26:10.838Z,59.10
2018-04-26T09:28:38.531Z,60.10
2018-04-26T09:31:06.722Z,56.40
2018-04-26T09:33:34.144Z,56.30
2018-04-26T09:36:01.575Z,58.10
2018-04-26T09:38:29.006Z,57.40
2018-04-26T09:40:56.439Z,57.80
2018-04-26T09:43:24.631Z,56.70
2018-04-26T09:45:52.067Z,56.70
2018-04-26T09:48:20.269Z,55.60
2018-04-26T09:50:47.690Z,55.60
2018-04-26T09:53:15.114Z,57.20
2018-04-26T09:55:42.542Z,57.90
2018-04-26T09:58:09.967Z,54.40
2018-04-26T10:00:42.984Z,50.60
2018-04-26T10:03:10.404Z,50.50
2018-04-26T10:08:40.806Z,49.50
2018-04-26T10:11:08.525Z,50.20
2018-04-26T10:13:35.970Z,50.30
2018-04-26T10:16:03.417Z,50.80
2018-04-26T10:18:30.866Z,52.70
2018-04-26T10:20:58.306Z,49.50
2018-04-26T10:23:26.741Z,46.70
2018-04-26T10:25:54.197Z,46.60
2018-04-26T10:28:21.632Z,46.00
2018-04-26T10:30:49.091Z,46.30
2018-04-26T10:33:16.557Z,46.90
2018-04-26T10:35:44.001Z,44.80
2018-04-26T10:38:11.448Z,43.00
2018-04-26T10:40:38.892Z,43.30
2018-04-26T10:43:06.348Z,43.00
2018-04-26T10:45:33.807Z,42.60
2018-04-26T10:48:01.250Z,42.90
2018-04-26T10:50:28.694Z,44.40
2018-04-26T10:52:56.928Z,41.90
2018-04-26T10:55:24.350Z,41.90
2018-04-26T10:57:51.908Z,41.30
2018-04-26T11:00:19.349Z,41.30
2018-04-26T11:02:46.824Z,40.60
2018-04-26T11:05:14.267Z,38.20
2018-04-26T11:07:41.717Z,39.30
2018-04-26T11:10:09.950Z,40.80
2018-04-26T11:12:37.385Z,40.80
2018-04-26T11:15:04.837Z,43.00
2018-04-26T11:17:32.635Z,40.40
2018-04-26T11:20:00.072Z,39.20
2018-04-26T11:22:27.507Z,38.20
2018-04-26T11:24:54.970Z,36.80
2018-04-26T11:27:22.409Z,37.10
2018-04-26T11:29:49.871Z,36.00
2018-04-26T11:32:17.309Z,34.40
2018-04-26T11:34:45.530Z,33.70
2018-04-26T11:37:12.982Z,33.60
2018-04-26T11:39:40.420Z,33.10
2018-04-26T11:42:07.870Z,31.70
2018-04-26T11:44:36.081Z,33.80
2018-04-26T11:47:03.532Z,33.80
2018-04-26T11:49:30.986Z,35.40
2018-04-26T11:51:58.467Z,35.20
2018-04-26T11:54:25.913Z,34.00
2018-04-26T11:56:53.354Z,34.60
2018-04-26T11:59:20.813Z,32.80
2018-04-26T12:01:48.258Z,32.30
2018-04-26T12:04:15.722Z,33.80
2018-04-26T12:06:43.163Z,34.00
2018-04-26T12:09:11.366Z,34.00
2018-04-26T12:11:38.818Z,33.90
2018-04-26T12:14:06.266Z,33.50
2018-04-26T12:16:33.708Z,31.30
2018-04-26T12:19:01.945Z,33.20
2018-04-26T12:21:29.510Z,33.20
2018-04-26T12:23:56.996Z,33.80
2018-04-26T12:26:25.194Z,34.10
2018-04-26T12:28:53.391Z,35.40
2018-04-26T12:31:20.866Z,35.30
2018-04-26T12:33:48.308Z,35.90
2018-04-26T12:36:15.765Z,35.40
2018-04-26T12:38:43.215Z,33.90
2018-04-26T12:41:10.668Z,35.20
2018-04-26T12:43:38.129Z,34.60
2018-04-26T12:46:05.563Z,35.10
2018-04-26T12:48:33.772Z,31.40
2018-04-26T12:51:01.233Z,31.40
2018-04-26T12:53:28.702Z,31.20
2018-04-26T12:55:56.140Z,30.10
2018-04-26T12:58:23.577Z,29.40
2018-04-26T13:00:51.046Z,28.60
2018-04-26T13:03:18.487Z,28.30
2018-04-26T13:05:45.925Z,30.60
2018-04-26T13:08:14.162Z,29.60
2018-04-26T13:10:42.385Z,30.70
2018-04-26T13:13:10.596Z,29.50
2018-04-26T13:15:38.047Z,29.50
2018-04-26T13:18:05.511Z,27.70
2018-04-26T13:20:32.953Z,28.20
2018-04-26T13:23:00.398Z,29.90
2018-04-26T13:25:27.847Z,28.40
2018-04-26T13:27:55.316Z,27.70
2018-04-26T13:30:22.810Z,28.40
2018-04-26T13:32:50.322Z,28.60
2018-04-26T13:35:17.779Z,29.10
2018-04-26T13:37:45.207Z,30.00
2018-04-26T13:40:12.669Z,30.50
2018-04-26T13:42:40.149Z,30.30
2018-04-26T13:45:07.841Z,30.10
2018-04-26T13:47:35.324Z,29.60
2018-04-26T13:50:03.574Z,27.10
2018-04-26T13:52:31.020Z,27.10
2018-04-26T13:54:58.460Z,27.00
2018-04-26T13:57:25.907Z,28.90
2018-04-26T13:59:53.362Z,28.70
2018-04-26T14:02:20.818Z,28.00
2018-04-26T14:04:48.268Z,29.00
2018-04-26T14:07:19.761Z,30.00
2018-04-26T14:09:47.471Z,29.80
2018-04-26T14:12:14.915Z,29.60
2018-04-26T14:14:42.366Z,27.90
2018-04-26T14:17:09.819Z,26.90
2018-04-26T14:19:37.280Z,26.90
2018-04-26T14:22:04.730Z,26.70
2018-04-26T14:24:32.184Z,26.20
2018-04-26T14:26:59.638Z,24.70
2018-04-26T14:29:27.094Z,26.20
2018-04-26T14:31:54.522Z,26.10
2018-04-26T14:34:21.970Z,26.60
2018-04-26T14:36:49.409Z,27.50
2018-04-26T14:39:16.862Z,27.60
2018-04-26T14:41:44.312Z,26.80
2018-04-26T14:44:11.765Z,26.00
2018-04-26T14:46:39.210Z,25.60
2018-04-26T14:49:06.709Z,25.20
2018-04-26T14:51:34.169Z,24.70
2018-04-26T14:54:02.368Z,25.00
2018-04-26T14:56:30.589Z,26.00
2018-04-26T14:58:58.030Z,25.60
2018-04-26T15:01:25.475Z,25.60
2018-04-26T15:03:53.693Z,26.90
2018-04-26T15:06:21.163Z,26.80
2018-04-26T15:08:48.604Z,25.70
2018-04-26T15:11:16.318Z,24.90
2018-04-26T15:13:44.529Z,25.00
2018-04-26T15:16:11.976Z,24.90
2018-04-26T15:18:39.452Z,24.70
2018-04-26T15:21:06.908Z,25.80
2018-04-26T15:23:34.908Z,25.80
2018-04-26T15:26:02.419Z,25.60
2018-04-26T15:28:29.891Z,23.40
2018-04-26T15:30:57.360Z,23.70
2018-04-26T15:33:24.813Z,23.60
2018-04-26T15:35:52.257Z,23.50
2018-04-26T15:38:19.707Z,24.40
2018-04-26T15:40:47.152Z,24.90
2018-04-26T15:43:14.611Z,26.30
2018-04-26T15:45:42.053Z,26.30
2018-04-26T15:48:11.225Z,25.40
2018-04-26T15:50:53.532Z,26.10
2018-04-26T15:53:34.042Z,24.90
2018-04-26T15:56:13.337Z,24.90
2018-04-26T16:02:02.878Z,23.60
2018-04-26T16:04:42.050Z,23.10
2018-04-26T16:07:43.349Z,25.10
2018-04-26T16:10:22.648Z,25.10
2018-04-26T16:13:07.994Z,25.10
2018-04-26T16:15:53.051Z,25.10
2018-04-26T16:18:38.376Z,24.60
2018-04-26T16:21:23.589Z,24.80
2018-04-26T16:24:04.083Z,25.00
2018-04-26T16:29:56.222Z,27.40
2018-04-26T16:32:36.392Z,29.10
2018-04-26T16:35:20.625Z,29.10
2018-04-26T16:38:06.410Z,32.10
2018-04-26T16:40:34.637Z,34.40
2018-04-26T16:43:02.129Z,34.30
2018-04-26T16:45:29.579Z,34.70
2018-04-26T16:47:57.037Z,36.00
2018-04-26T16:50:24.489Z,35.90
2018-04-26T16:52:51.930Z,37.00
2018-04-26T16:55:19.370Z,37.30
2018-04-26T16:57:46.816Z,38.20
2018-04-26T17:00:14.302Z,38.60
2018-04-26T17:02:41.744Z,39.30
2018-04-26T17:05:09.220Z,38.70
2018-04-26T17:07:36.668Z,39.10
2018-04-26T17:10:04.129Z,39.70
2018-04-26T17:12:31.563Z,40.20
2018-04-26T17:14:59.022Z,40.20
2018-04-26T17:17:26.470Z,40.90
2018-04-26T17:19:53.944Z,41.50
2018-04-26T17:22:21.495Z,41.60
2018-04-26T17:24:48.956Z,42.60
2018-04-26T17:27:16.480Z,42.10
2018-04-26T17:29:43.995Z,44.10
2018-04-26T17:32:11.503Z,46.70
2018-04-26T17:34:39.729Z,46.80
2018-04-26T17:37:07.285Z,46.80
2018-04-26T17:39:34.738Z,49.20
2018-04-26T17:42:02.275Z,51.40
2018-04-26T17:44:29.765Z,52.00
2018-04-26T17:46:57.216Z,51.70
2018-04-26T17:49:24.989Z,53.20
2018-04-26T17:51:52.481Z,54.10
2018-04-26T17:54:19.910Z,53.40
2018-04-26T17:56:47.369Z,54.90
2018-04-26T17:59:14.803Z,55.80
2018-04-26T18:01:42.256Z,56.20
2018-04-26T18:04:09.702Z,57.20
2018-04-26T18:06:37.177Z,58.20
2018-04-26T18:09:05.529Z,58.30
2018-04-26T18:11:33.329Z,59.70
2018-04-26T18:14:00.775Z,59.90
2018-04-26T18:16:28.208Z,60.40
2018-04-26T18:18:55.672Z,61.20
2018-04-26T18:21:23.109Z,61.90
2018-04-26T18:23:50.560Z,62.10
2018-04-26T18:26:18.776Z,63.30
2018-04-26T18:28:46.218Z,63.20
2018-04-26T18:31:13.673Z,63.80
2018-04-26T18:33:41.118Z,64.70
2018-04-26T18:36:08.567Z,64.70
2018-04-26T18:38:35.999Z,64.70
2018-04-26T18:41:04.204Z,64.60
2018-04-26T18:43:31.744Z,64.50
2018-04-26T18:45:59.113Z,64.50
2018-04-26T18:48:26.562Z,64.90
2018-04-26T18:50:54.000Z,65.10
2018-04-26T18:53:22.210Z,69.10
2018-04-26T18:55:49.679Z,69.10
2018-04-26T18:58:17.288Z,70.70
2018-04-26T19:00:44.772Z,71.60
2018-04-26T19:03:12.220Z,72.10
2018-04-26T19:05:39.793Z,71.50
2018-04-26T19:08:07.250Z,72.30
2018-04-26T19:10:34.791Z,71.40
2018-04-26T19:13:02.230Z,71.50
2018-04-26T19:15:29.780Z,71.90
2018-04-26T19:17:57.253Z,72.10
2018-04-26T19:20:24.699Z,73.10
2018-04-26T19:22:52.225Z,74.00
2018-04-26T19:25:20.517Z,75.20
2018-04-26T19:27:48.083Z,75.10
2018-04-26T19:30:15.456Z,75.70
2018-04-26T19:32:42.894Z,75.70
2018-04-26T19:35:11.111Z,75.20
2018-04-26T19:37:39.412Z,75.20
2018-04-26T19:40:06.899Z,75.10
2018-04-26T19:42:35.110Z,74.80
2018-04-26T19:45:02.542Z,74.70
2018-04-26T19:47:30.583Z,74.60
2018-04-26T19:49:58.068Z,75.40
2018-04-26T19:52:26.270Z,76.10
2018-04-26T19:54:53.740Z,76.00
2018-04-26T19:57:21.978Z,79.10
2018-04-26T19:59:50.197Z,79.20
2018-04-26T20:02:17.640Z,79.20
2018-04-26T20:04:45.097Z,81.20
2018-04-26T20:07:12.561Z,82.60
2018-04-26T20:09:40.025Z,83.90
2018-04-26T20:12:07.485Z,85.30
2018-04-26T20:14:35.018Z,85.70
2018-04-26T20:17:02.485Z,85.90
2018-04-26T20:19:29.959Z,85.90
2018-04-26T20:21:57.409Z,84.40
2018-04-26T20:24:24.849Z,82.70
2018-04-26T20:26:52.295Z,82.40
2018-04-26T20:29:19.742Z,81.70
2018-04-26T20:31:47.177Z,81.50
2018-04-26T20:34:14.621Z,81.00
2018-04-26T20:36:42.852Z,81.20
2018-04-26T20:39:10.283Z,81.20
2018-04-26T20:41:49.713Z,81.90
2018-04-26T20:44:28.972Z,82.20
2018-04-26T20:46:56.448Z,83.10
2018-04-26T20:49:23.905Z,85.90
2018-04-26T20:51:51.366Z,86.70
2018-04-26T20:54:19.280Z,87.50
2018-04-26T20:56:47.484Z,88.30
2018-04-26T20:59:14.945Z,88.30
2018-04-26T21:01:42.384Z,88.00
2018-04-26T21:04:10.612Z,89.10
2018-04-26T21:06:38.074Z,89.00
2018-04-26T21:09:05.533Z,89.20
2018-04-26T21:11:32.974Z,88.60
2018-04-26T21:14:00.443Z,87.90
2018-04-26T21:16:27.899Z,87.60
2018-04-26T21:18:55.374Z,87.90
2018-04-26T21:21:22.828Z,88.60
2018-04-26T21:23:50.297Z,89.20
2018-04-26T21:26:17.745Z,89.80
2018-04-26T21:28:45.190Z,90.00
2018-04-26T21:31:12.639Z,89.80
2018-04-26T21:33:40.098Z,89.40
2018-04-26T21:36:07.554Z,89.20
2018-04-26T21:38:35.045Z,89.20
2018-04-26T21:41:02.481Z,89.60
2018-04-26T21:43:29.948Z,90.10
2018-04-26T21:45:57.440Z,90.40
2018-04-26T21:48:25.709Z,91.10
2018-04-26T21:50:59.757Z,91.30
2018-04-26T21:53:32.812Z,91.20
2018-04-26T21:56:06.635Z,91.70
2018-04-26T21:58:39.686Z,91.70
2018-04-26T22:01:13.656Z,92.00
2018-04-26T22:03:51.797Z,92.00
2018-04-26T22:06:19.299Z,92.20
2018-04-26T22:08:46.722Z,92.40
2018-04-26T22:11:14.916Z,92.70
2018-04-26T22:13:42.370Z,92.70
2018-04-26T22:16:09.834Z,92.90
2018-04-26T22:18:37.301Z,93.00
2018-04-26T22:21:04.749Z,93.40
2018-04-26T22:23:32.190Z,93.60
2018-04-26T22:26:00.549Z,93.50
2018-04-26T22:28:28.764Z,93.60
2018-04-26T22:30:56.204Z,93.60
2018-04-26T22:33:23.650Z,93.60
2018-04-26T22:35:51.091Z,93.70
2018-04-26T22:38:18.566Z,93.80
2018-04-26T22:40:46.013Z,93.90
2018-04-26T22:43:13.433Z,93.90
2018-04-26T22:45:41.655Z,94.10
2018-04-26T22:48:09.114Z,94.10
2018-04-26T22:50:36.552Z,94.20
2018-04-26T22:53:03.989Z,94.10
2018-04-26T22:55:32.201Z,94.30
2018-04-26T22:57:59.656Z,94.30
2018-04-26T23:00:27.112Z,94.40
2018-04-26T23:02:54.569Z,94.40
2018-04-26T23:05:22.016Z,94.50
2018-04-26T23:07:49.472Z,94.60
2018-04-26T23:10:16.923Z,94.60
2018-04-26T23:12:44.352Z,94.70
2018-04-26T23:15:12.577Z,94.70
2018-04-26T23:17:40.010Z,94.70
2018-04-26T23:20:07.459Z,94.60
2018-04-26T23:22:34.898Z,94.50
2018-04-26T23:25:03.137Z,94.60
2018-04-26T23:27:30.574Z,94.60
2018-04-26T23:29:58.018Z,94.60
2018-04-26T23:32:25.492Z,94.70
2018-04-26T23:34:52.944Z,94.80
2018-04-26T23:37:20.377Z,94.80
2018-04-26T23:39:48.594Z,94.80
2018-04-26T23:42:16.059Z,94.80
2018-04-26T23:44:43.514Z,94.90
2018-04-26T23:47:10.969Z,94.90
2018-04-26T23:49:38.430Z,94.90
2018-04-26T23:52:05.856Z,94.90
2018-04-26T23:54:33.312Z,95.00
2018-04-26T23:57:00.753Z,95.00
2018-04-26T23:59:29.061Z,95.10
